.
WxDataArchive / Data Records for 2016-01-21
2016-01-20 January 2016 2016-01-22

Data Records for Thursday, 21 January 2016

Time	Temp	Chill	HIndex	Humid	Dewpt	 Wind 	HiWind	WindDir	Rain 	Barom
-----	----	-----	------	-----	-----	------	------	-------	-----	-----
00:00	8.1	8.1	8.1	85	4.5	0	0	---	0.00	30.327 
00:05	8.1	8.1	8.1	84	4.3	0	0	---	0.00	30.327 
00:10	7.9	7.9	7.9	85	4.3	0	0	---	0.00	30.327 
00:15	7.9	7.9	7.9	85	4.3	0	0	---	0.00	30.327 
00:20	7.9	7.9	7.9	85	4.3	0	0	---	0.00	30.327 
00:25	7.9	7.9	7.9	85	4.3	0	0	---	0.00	30.327 
00:30	7.7	7.7	7.7	84	3.9	0	0	---	0.00	30.320 
00:35	7.6	7.6	7.6	84	3.8	0	0	---	0.00	30.320 
00:40	7.6	7.6	7.6	85	4.1	0	0	---	0.00	30.320 
00:45	7.4	7.4	7.4	85	3.9	0	0	---	0.00	30.325 
00:50	7.4	7.4	7.4	85	3.9	0	0	---	0.00	30.325 
00:55	7.4	7.4	7.4	85	3.9	0	0	---	0.00	30.325 
01:00	7.2	7.2	7.2	84	3.4	0	0	---	0.00	30.331 
01:05	7.0	7.0	7.0	84	3.2	0	0	---	0.00	30.331 
01:10	6.9	6.9	6.9	84	3.1	0	0	---	0.00	30.331 
01:15	6.9	6.9	6.9	84	3.1	0	0	---	0.00	30.339 
01:20	6.9	6.9	6.9	84	3.1	0	0	---	0.00	30.339 
01:25	7.0	7.0	7.0	85	3.5	0	0	---	0.00	30.339 
01:30	7.6	7.6	7.6	85	4.1	0	0	---	0.00	30.346 
01:35	7.9	7.9	7.9	85	4.3	0	0	---	0.00	30.346 
01:40	8.4	8.4	8.4	86	5.1	0	0	---	0.00	30.346 
01:45	9.0	9.0	9.0	86	5.7	0	0	---	0.00	30.343 
01:50	9.2	9.2	9.2	86	5.9	0	0	---	0.00	30.343 
01:55	9.5	9.5	9.5	86	6.2	0	0	---	0.00	30.343 
02:00	10.0	10.0	10.0	87	6.9	0	0	---	0.00	30.343 
02:05	10.5	10.5	10.5	87	7.4	0	0	---	0.00	30.343 
02:10	10.9	10.9	10.9	87	7.8	0	0	---	0.00	30.343 
02:15	11.2	11.2	11.2	87	8.1	0	0	---	0.00	30.338 
02:20	11.6	11.6	11.6	87	8.5	0	0	---	0.00	30.338 
02:25	12.1	12.1	12.1	87	9.0	0	0	---	0.00	30.338 
02:30	12.6	12.6	12.6	88	9.7	0	0	---	0.00	30.338 
02:35	13.3	13.3	13.3	88	10.4	0	0	---	0.00	30.338 
02:40	13.8	13.8	13.8	88	10.9	0	0	---	0.00	30.338 
02:45	14.1	14.1	14.1	88	11.2	0	0	---	0.00	30.337 
02:50	14.3	14.3	14.3	88	11.4	0	0	---	0.00	30.337 
02:55	14.4	14.4	14.4	88	11.5	0	0	---	0.00	30.337 
03:00	14.6	14.6	14.6	88	11.7	0	0	---	0.00	30.333 
03:05	14.8	14.8	14.8	88	11.9	0	0	---	0.00	30.333 
03:10	14.9	14.9	14.9	87	11.7	0	0	---	0.00	30.333 
03:15	14.9	14.9	14.9	87	11.7	0	0	---	0.00	30.328 
03:20	15.1	15.1	15.1	87	11.9	0	0	---	0.00	30.328 
03:25	15.1	15.1	15.1	87	11.9	0	0	---	0.00	30.328 
03:30	15.2	15.2	15.2	87	12.0	0	0	---	0.00	30.323 
03:35	15.2	15.2	15.2	87	12.0	0	0	---	0.00	30.323 
03:40	15.4	15.4	15.4	87	12.2	0	0	---	0.00	30.323 
03:45	15.4	15.4	15.4	87	12.2	0	0	---	0.00	30.326 
03:50	15.4	15.4	15.4	87	12.2	0	1	292	0.00	30.326 
03:55	15.4	15.4	15.4	87	12.2	0	0	---	0.00	30.326 
04:00	15.6	15.6	15.6	87	12.4	0	0	---	0.00	30.322 
04:05	15.6	15.6	15.6	87	12.4	0	0	---	0.00	30.322 
04:10	15.6	15.6	15.6	86	12.2	0	0	---	0.00	30.322 
04:15	15.6	15.6	15.6	86	12.2	0	0	---	0.00	30.320 
04:20	15.7	15.7	15.7	86	12.3	0	0	---	0.00	30.320 
04:25	15.7	15.7	15.7	86	12.3	0	0	---	0.00	30.320 
04:30	15.7	15.7	15.7	86	12.3	0	0	---	0.00	30.320 
04:35	15.9	15.9	15.9	86	12.5	0	0	---	0.00	30.320 
04:40	15.9	15.9	15.9	86	12.5	0	0	---	0.00	30.320 
04:45	15.9	15.9	15.9	86	12.5	0	0	---	0.00	30.326 
04:50	15.9	15.9	15.9	86	12.5	0	0	---	0.00	30.326 
04:55	16.1	16.1	16.1	86	12.7	0	0	---	0.00	30.326 
05:00	16.1	16.1	16.1	86	12.7	0	0	---	0.00	30.333 
05:05	16.1	16.1	16.1	86	12.7	0	0	---	0.00	30.333 
05:10	16.1	16.1	16.1	86	12.7	0	0	---	0.00	30.333 
05:15	16.2	16.2	16.2	86	12.8	0	0	---	0.00	30.338 
05:20	16.2	16.2	16.2	86	12.8	0	0	---	0.00	30.338 
05:25	16.2	16.2	16.2	86	12.8	0	0	---	0.00	30.338 
05:30	16.2	16.2	16.2	86	12.8	0	0	---	0.00	30.338 
05:35	16.2	16.2	16.2	86	12.8	0	0	---	0.00	30.338 
05:40	16.2	16.2	16.2	86	12.8	0	0	---	0.00	30.338 
05:45	16.4	16.4	16.4	86	13.0	0	0	---	0.00	30.344 
05:50	16.4	16.4	16.4	86	13.0	0	0	---	0.00	30.344 
05:55	16.4	16.4	16.4	86	13.0	0	0	---	0.00	30.344 
06:00	16.4	16.4	16.4	86	13.0	0	0	---	0.00	30.345 
06:05	16.4	16.4	16.4	86	13.0	0	0	---	0.00	30.345 
06:10	16.4	16.4	16.4	86	13.0	0	0	---	0.00	30.345 
06:15	16.5	16.5	16.5	86	13.1	0	0	---	0.00	30.354 
06:20	16.5	16.5	16.5	86	13.1	0	0	---	0.00	30.354 
06:25	16.5	16.5	16.5	86	13.1	0	0	---	0.00	30.354 
06:30	16.7	16.7	16.7	86	13.3	0	0	---	0.00	30.364 
06:35	16.7	16.7	16.7	86	13.3	0	0	---	0.00	30.364 
06:40	16.9	16.9	16.9	86	13.5	0	0	---	0.00	30.364 
06:45	16.9	16.9	16.9	86	13.5	0	0	---	0.00	30.373 
06:50	16.9	16.9	16.9	86	13.5	0	0	---	0.00	30.373 
06:55	17.0	17.0	17.0	86	13.6	0	0	---	0.00	30.373 
07:00	17.0	17.0	17.0	86	13.6	0	0	---	0.00	30.386 
07:05	17.2	17.2	17.2	86	13.7	0	1	292	0.00	30.386 
07:10	17.2	17.2	17.2	86	13.7	0	0	---	0.00	30.386 
07:15	17.3	17.3	17.3	86	13.8	0	0	---	0.00	30.402 
07:20	17.3	17.3	17.3	86	13.8	0	0	---	0.00	30.402 
07:25	17.3	17.3	17.3	86	13.8	0	0	---	0.00	30.402 
07:30	17.5	17.5	17.5	86	14.0	0	0	---	0.00	30.403 
07:35	17.5	17.5	17.5	86	14.0	0	0	---	0.00	30.403 
07:40	17.5	17.5	17.5	85	13.8	0	0	---	0.00	30.403 
07:45	17.5	17.5	17.5	85	13.8	0	0	---	0.00	30.399 
07:50	17.5	17.5	17.5	85	13.8	0	0	---	0.00	30.399 
07:55	17.5	17.5	17.5	85	13.8	0	0	---	0.00	30.399 
08:00	17.5	17.5	17.5	84	13.5	0	0	---	0.00	30.393 
08:05	17.5	17.5	17.5	84	13.5	0	0	---	0.00	30.393 
08:10	17.5	17.5	17.5	84	13.5	0	0	---	0.00	30.393 
08:15	17.5	17.5	17.5	84	13.5	0	0	---	0.00	30.400 
08:20	17.5	17.5	17.5	84	13.5	0	0	---	0.00	30.400 
08:25	17.5	17.5	17.5	84	13.5	0	0	---	0.00	30.400 
08:30	17.7	17.7	17.7	84	13.7	0	0	---	0.00	30.405 
08:35	17.7	17.7	17.7	84	13.7	0	0	---	0.00	30.405 
08:40	17.8	17.8	17.8	83	13.5	0	0	---	0.00	30.405 
08:45	18.0	18.0	18.0	83	13.7	0	0	---	0.00	30.404 
08:50	18.1	18.1	18.1	83	13.8	0	0	---	0.00	30.404 
08:55	18.1	18.1	18.1	83	13.8	0	0	---	0.00	30.404 
09:00	18.3	18.3	18.3	83	14.0	0	0	---	0.00	30.406 
09:05	18.4	18.4	18.4	83	14.1	0	0	---	0.00	30.406 
09:10	18.6	18.6	18.6	83	14.3	0	0	---	0.00	30.406 
09:15	18.8	18.8	18.8	83	14.5	0	0	---	0.00	30.406 
09:20	18.9	18.9	18.9	83	14.6	0	0	---	0.00	30.406 
09:25	18.9	18.9	18.9	83	14.6	0	0	---	0.00	30.406 
09:30	19.1	19.1	19.1	82	14.5	0	0	---	0.00	30.410 
09:35	19.2	19.2	19.2	82	14.6	0	0	---	0.00	30.410 
09:40	19.2	19.2	19.2	82	14.6	0	0	---	0.00	30.410 
09:45	19.4	19.4	19.4	81	14.5	0	1	292	0.00	30.407 
09:50	19.2	19.2	19.2	81	14.3	0	2	292	0.00	30.407 
09:55	19.1	19.1	19.1	81	14.2	0	1	292	0.00	30.407 
10:00	19.1	19.1	19.1	81	14.2	0	1	292	0.01	30.403 
10:05	19.1	19.1	19.1	81	14.2	0	1	292	0.00	30.403 
10:10	19.1	19.1	19.1	81	14.2	0	1	292	0.00	30.403 
10:15	19.1	19.1	19.1	81	14.2	0	1	292	0.00	30.406 
10:20	19.1	19.1	19.1	80	14.0	0	1	292	0.00	30.406 
10:25	19.2	19.2	19.2	80	14.1	0	0	---	0.00	30.406 
10:30	19.4	19.4	19.4	80	14.3	0	1	292	0.00	30.402 
10:35	19.7	19.7	19.7	79	14.3	0	0	---	0.00	30.402 
10:40	19.9	19.9	19.9	79	14.5	0	1	292	0.00	30.402 
10:45	20.2	20.2	20.2	79	14.8	0	0	---	0.00	30.403 
10:50	20.5	20.5	20.5	79	15.0	0	0	---	0.00	30.403 
10:55	20.8	20.8	20.8	78	15.0	0	1	292	0.00	30.403 
11:00	21.1	21.1	21.1	78	15.3	0	1	292	0.00	30.404 
11:05	21.4	21.4	21.4	77	15.3	0	1	292	0.00	30.404 
11:10	21.6	21.6	21.6	76	15.2	0	1	292	0.00	30.404 
11:15	21.9	21.9	21.9	76	15.5	0	0	---	0.00	30.405 
11:20	22.2	22.2	22.2	75	15.5	0	1	292	0.00	30.405 
11:25	22.5	22.5	22.5	74	15.5	0	1	292	0.00	30.405 
11:30	22.9	22.9	22.9	73	15.6	0	1	292	0.00	30.404 
11:35	23.5	23.5	23.5	73	16.1	0	0	---	0.00	30.404 
11:40	23.8	23.8	23.8	71	15.8	0	1	292	0.00	30.404 
11:45	23.9	23.9	23.9	70	15.6	0	1	292	0.00	30.402 
11:50	24.2	24.2	24.2	70	15.9	0	1	292	0.00	30.402 
11:55	24.2	24.2	24.2	69	15.5	0	2	22	0.00	30.402 
12:00	24.5	24.5	24.5	70	16.1	0	2	22	0.00	30.400 
12:05	24.7	24.7	24.7	68	15.7	0	1	22	0.00	30.400 
12:10	24.7	24.7	24.7	67	15.3	1	3	22	0.00	30.400 
12:15	24.5	24.5	24.5	67	15.1	1	3	135	0.00	30.386 
12:20	24.5	24.5	24.5	68	15.5	0	2	135	0.00	30.386 
12:25	24.7	24.7	24.7	68	15.7	0	2	135	0.00	30.386 
12:30	24.5	24.5	24.5	68	15.5	1	3	135	0.00	30.387 
12:35	24.5	24.5	24.5	67	15.1	1	3	135	0.00	30.387 
12:40	24.8	24.8	24.8	69	16.1	0	1	135	0.00	30.387 
12:45	25.1	25.1	25.1	66	15.4	0	3	135	0.00	30.388 
12:50	25.1	25.1	25.1	66	15.4	0	1	135	0.00	30.388 
12:55	25.1	25.1	25.1	67	15.7	0	1	135	0.00	30.388 
13:00	25.3	25.3	25.3	66	15.6	1	5	135	0.00	30.386 
13:05	25.1	25.1	25.1	67	15.7	1	4	90	0.00	30.386 
13:10	25.1	25.1	25.1	65	15.0	1	3	90	0.00	30.386 
13:15	25.3	25.3	25.3	67	15.9	0	2	90	0.00	30.383 
13:20	25.7	25.7	25.7	67	16.3	0	3	112	0.00	30.383 
13:25	26.0	26.0	26.0	66	16.2	0	3	112	0.00	30.383 
13:30	26.0	26.0	26.0	67	16.6	1	5	112	0.00	30.374 
13:35	25.8	25.8	25.8	66	16.0	1	3	112	0.00	30.374 
13:40	26.0	26.0	26.0	68	16.9	0	2	90	0.00	30.374 
13:45	26.4	26.4	26.4	65	16.3	0	3	90	0.00	30.371 
13:50	26.3	26.3	26.3	65	16.2	1	2	90	0.00	30.371 
13:55	26.1	26.1	26.1	65	16.0	1	3	90	0.00	30.371 
14:00	26.4	26.4	26.4	66	16.6	0	3	112	0.00	30.365 
14:05	26.7	26.7	26.7	65	16.5	0	3	112	0.00	30.365 
14:10	27.0	27.0	27.0	65	16.8	0	2	112	0.00	30.365 
14:15	27.0	27.0	27.0	64	16.5	0	1	112	0.00	30.351 
14:20	27.0	27.0	27.0	63	16.1	0	1	112	0.00	30.351 
14:25	27.0	27.0	27.0	64	16.5	0	1	112	0.00	30.351 
14:30	26.9	26.9	26.9	65	16.7	0	2	112	0.00	30.344 
14:35	26.7	26.7	26.7	65	16.5	0	4	112	0.00	30.344 
14:40	26.6	26.6	26.6	65	16.4	1	4	112	0.00	30.344 
14:45	26.4	26.4	26.4	65	16.3	1	3	112	0.00	30.340 
14:50	26.3	26.3	26.3	66	16.5	0	2	112	0.00	30.340 
14:55	26.3	26.3	26.3	66	16.5	0	2	112	0.00	30.340 
15:00	26.6	26.6	26.6	66	16.8	0	2	112	0.00	30.329 
15:05	26.6	26.6	26.6	65	16.4	0	2	112	0.00	30.329 
15:10	26.6	26.6	26.6	65	16.4	0	1	112	0.00	30.329 
15:15	26.9	26.9	26.9	65	16.7	0	1	112	0.00	30.329 
15:20	27.0	27.0	27.0	65	16.8	0	0	---	0.00	30.329 
15:25	27.2	27.2	27.2	64	16.7	0	2	112	0.00	30.329 
15:30	27.0	27.0	27.0	65	16.8	0	2	135	0.00	30.327 
15:35	26.7	26.7	26.7	65	16.5	1	4	135	0.00	30.327 
15:40	26.6	26.6	26.6	65	16.4	1	3	135	0.00	30.327 
15:45	26.1	26.1	26.1	66	16.3	1	3	112	0.00	30.330 
15:50	26.0	26.0	26.0	67	16.6	0	3	112	0.00	30.330 
15:55	25.8	25.8	25.8	66	16.0	1	4	112	0.00	30.330 
16:00	25.8	25.8	25.8	67	16.4	0	3	135	0.00	30.330 
16:05	25.7	25.7	25.7	67	16.3	1	3	112	0.00	30.330 
16:10	25.7	25.7	25.7	67	16.3	0	3	112	0.00	30.330 
16:15	25.6	25.6	25.6	67	16.2	0	2	112	0.00	30.324 
16:20	25.4	25.4	25.4	67	16.0	0	2	158	0.00	30.324 
16:25	25.4	25.4	25.4	67	16.0	0	2	158	0.00	30.324 
16:30	25.3	25.3	25.3	67	15.9	0	2	158	0.00	30.319 
16:35	25.1	25.1	25.1	67	15.7	1	3	158	0.00	30.319 
16:40	25.0	25.0	25.0	68	16.0	1	3	135	0.00	30.319 
16:45	25.0	25.0	25.0	68	16.0	0	3	135	0.00	30.327 
16:50	25.0	25.0	25.0	68	16.0	0	4	112	0.00	30.327 
16:55	24.8	24.8	24.8	68	15.8	0	1	112	0.00	30.327 
17:00	24.8	24.8	24.8	68	15.8	0	2	112	0.00	30.336 
17:05	24.7	24.7	24.7	69	16.0	0	2	112	0.00	30.336 
17:10	24.7	24.7	24.7	69	16.0	0	2	112	0.00	30.336 
17:15	24.5	24.5	24.5	69	15.8	1	3	90	0.00	30.344 
17:20	24.5	24.5	24.5	69	15.8	0	4	90	0.00	30.344 
17:25	24.4	24.4	24.4	69	15.7	0	1	90	0.00	30.344 
17:30	24.2	24.2	24.2	69	15.5	0	3	90	0.00	30.348 
17:35	24.1	24.1	24.1	69	15.4	0	1	90	0.00	30.348 
17:40	23.9	23.9	23.9	69	15.2	0	1	90	0.00	30.348 
17:45	23.6	23.6	23.6	69	14.9	0	1	90	0.00	30.333 
17:50	23.5	23.5	23.5	69	14.9	0	3	90	0.00	30.333 
17:55	23.3	23.3	23.3	70	15.0	0	1	90	0.00	30.333 
18:00	23.2	23.2	23.2	71	15.2	0	1	90	0.00	30.336 
18:05	23.0	23.0	23.0	72	15.3	0	1	90	0.00	30.336 
18:10	22.7	22.7	22.7	72	15.1	0	0	---	0.00	30.336 
18:15	22.5	22.5	22.5	73	15.2	0	1	90	0.00	30.332 
18:20	22.2	22.2	22.2	73	14.9	0	1	90	0.00	30.332 
18:25	22.1	22.1	22.1	73	14.8	0	1	90	0.00	30.332 
18:30	21.9	21.9	21.9	74	14.9	0	0	---	0.00	30.342 
18:35	21.8	21.8	21.8	74	14.8	0	0	---	0.00	30.342 
18:40	21.6	21.6	21.6	75	14.9	0	1	90	0.00	30.342 
18:45	21.4	21.4	21.4	75	14.7	0	1	90	0.00	30.330 
18:50	21.4	21.4	21.4	75	14.7	0	0	---	0.00	30.330 
18:55	21.3	21.3	21.3	76	14.9	0	1	90	0.00	30.330 
19:00	21.1	21.1	21.1	76	14.7	0	0	---	0.00	30.334 
19:05	21.0	21.0	21.0	76	14.6	0	0	---	0.00	30.334 
19:10	20.8	20.8	20.8	76	14.5	0	0	---	0.00	30.334 
19:15	20.5	20.5	20.5	76	14.2	0	0	---	0.00	30.340 
19:20	20.3	20.3	20.3	77	14.3	0	0	---	0.00	30.340 
19:25	20.0	20.0	20.0	77	14.0	0	0	---	0.00	30.340 
19:30	19.7	19.7	19.7	78	14.0	0	0	---	0.00	30.334 
19:35	19.4	19.4	19.4	78	13.7	0	0	---	0.00	30.334 
19:40	19.2	19.2	19.2	78	13.5	0	0	---	0.00	30.334 
19:45	19.1	19.1	19.1	78	13.4	0	0	---	0.00	30.338 
19:50	18.9	18.9	18.9	79	13.5	0	0	---	0.00	30.338 
19:55	18.8	18.8	18.8	79	13.4	0	0	---	0.00	30.338 
20:00	18.6	18.6	18.6	79	13.2	0	0	---	0.00	30.344 
20:05	18.4	18.4	18.4	80	13.3	0	0	---	0.00	30.344 
20:10	18.1	18.1	18.1	80	13.0	0	0	---	0.00	30.344 
20:15	18.0	18.0	18.0	80	12.9	0	0	---	0.00	30.350 
20:20	17.8	17.8	17.8	80	12.7	0	0	---	0.00	30.350 
20:25	17.7	17.7	17.7	81	12.9	0	0	---	0.00	30.350 
20:30	17.3	17.3	17.3	81	12.5	0	0	---	0.00	30.353 
20:35	17.2	17.2	17.2	81	12.4	0	0	---	0.00	30.353 
20:40	17.0	17.0	17.0	81	12.2	0	0	---	0.00	30.353 
20:45	17.2	17.2	17.2	82	12.7	0	0	---	0.00	30.361 
20:50	17.2	17.2	17.2	82	12.7	0	0	---	0.00	30.361 
20:55	17.2	17.2	17.2	83	12.9	0	0	---	0.00	30.361 
21:00	17.2	17.2	17.2	83	12.9	0	0	---	0.00	30.360 
21:05	17.0	17.0	17.0	83	12.7	0	0	---	0.00	30.360 
21:10	17.0	17.0	17.0	83	12.7	0	0	---	0.00	30.360 
21:15	16.9	16.9	16.9	83	12.6	0	0	---	0.00	30.353 
21:20	16.7	16.7	16.7	84	12.7	0	0	---	0.00	30.353 
21:25	16.7	16.7	16.7	84	12.7	0	0	---	0.00	30.353 
21:30	16.5	16.5	16.5	84	12.5	0	0	---	0.00	30.354 
21:35	16.5	16.5	16.5	84	12.5	0	0	---	0.00	30.354 
21:40	16.4	16.4	16.4	84	12.4	0	0	---	0.00	30.354 
21:45	16.2	16.2	16.2	84	12.2	0	0	---	0.00	30.361 
21:50	16.2	16.2	16.2	84	12.2	0	0	---	0.00	30.361 
21:55	16.1	16.1	16.1	84	12.1	0	0	---	0.00	30.361 
22:00	15.9	15.9	15.9	84	11.9	0	0	---	0.00	30.353 
22:05	15.7	15.7	15.7	84	11.7	0	0	---	0.00	30.353 
22:10	15.6	15.6	15.6	84	11.6	0	0	---	0.00	30.353 
22:15	15.4	15.4	15.4	85	11.7	0	0	---	0.00	30.352 
22:20	15.4	15.4	15.4	85	11.7	0	0	---	0.00	30.352 
22:25	15.2	15.2	15.2	85	11.5	0	0	---	0.00	30.352 
22:30	15.1	15.1	15.1	85	11.4	0	0	---	0.00	30.347 
22:35	14.9	14.9	14.9	85	11.2	0	0	---	0.00	30.347 
22:40	14.8	14.8	14.8	85	11.1	0	0	---	0.00	30.347 
22:45	14.8	14.8	14.8	85	11.1	0	0	---	0.00	30.342 
22:50	14.6	14.6	14.6	85	10.9	0	0	---	0.00	30.342 
22:55	14.6	14.6	14.6	86	11.2	0	0	---	0.00	30.342 
23:00	14.6	14.6	14.6	86	11.2	0	0	---	0.00	30.347 
23:05	14.4	14.4	14.4	86	11.0	0	0	---	0.00	30.347 
23:10	14.4	14.4	14.4	86	11.0	0	0	---	0.00	30.347 
23:15	14.4	14.4	14.4	86	11.0	0	0	---	0.00	30.340 
23:20	14.3	14.3	14.3	86	10.9	0	0	---	0.00	30.340 
23:25	14.3	14.3	14.3	86	10.9	0	0	---	0.00	30.340 
23:30	14.3	14.3	14.3	86	10.9	0	0	---	0.00	30.333 
23:35	14.1	14.1	14.1	86	10.7	0	0	---	0.00	30.333 
23:40	14.0	14.0	14.0	86	10.6	0	0	---	0.00	30.333 
23:45	14.0	14.0	14.0	86	10.6	0	0	---	0.00	30.335 
23:50	13.8	13.8	13.8	86	10.4	0	0	---	0.00	30.335 
23:55	13.8	13.8	13.8	86	10.4	0	0	---	0.00	30.335 

CoCoRaHS
IN-AL-39
A2 Web Hosting
Creative Commons License
GoDaddy
search engine by freefind advanced

loaded 2018-11-12 19:14:36 • last modified 2010-11-18 10:43:29
Privacy PolicyDisclaimer
• wx.awcolley.com is powered by PmWiki v.2002016 •
• all content (unless otherwise noted) © 2018 A W Colley